Time;durP1;ratioP1;P1;durP2;ratioP2;P2;SDS_P1;SDS_P2;PMS_P1;PMS_P2;Temp;Humidity;BMP_temperature;BMP_pressure;BME280_temperature;BME280_humidity;BME280_pressure;Samples;Min_cycle;Max_cycle;Signal;HPM_P1;HPM_P2
2021/06/08 00:00:22;;;;;;;29.43;4.23;;;10.70;1.00;;;;;;4893536;28;20601;-75
2021/06/08 00:02:45;;;;;;;11.50;1.80;;;;;;;;;;4883549;28;20239;-74
2021/06/08 00:05:08;;;;;;;10.33;1.70;;;10.70;99.90;;;;;;4885736;28;20558;-74
2021/06/08 00:07:30;;;;;;;15.10;2.33;;;;;;;;;;4888546;28;20189;-77
2021/06/08 00:09:52;;;;;;;7.60;1.37;;;;;;;;;;4888744;28;20249;-77
2021/06/08 00:12:16;;;;;;;11.47;1.87;;;10.50;99.90;;;;;;4886936;28;20189;-77
2021/06/08 00:14:38;;;;;;;5.23;1.00;;;;;;;;;;4882462;28;20192;-77
2021/06/08 00:17:00;;;;;;;15.67;2.37;;;;;;;;;;4886411;28;20193;-77
2021/06/08 00:19:22;;;;;;;17.30;2.70;;;;;;;;;;4882810;28;20246;-77
2021/06/08 00:21:45;;;;;;;9.13;1.53;;;;;;;;;;4885563;28;20185;-78
2021/06/08 00:24:07;;;;;;;10.60;1.70;;;;;;;;;;4885625;28;20213;-78
2021/06/08 00:26:29;;;;;;;14.50;2.30;;;;;;;;;;4886603;28;20222;-78
2021/06/08 00:28:53;;;;;;;8.23;1.33;;;10.50;1.00;;;;;;4888375;28;20188;-77
2021/06/08 00:31:15;;;;;;;9.93;1.60;;;;;;;;;;4881107;28;20193;-77
2021/06/08 00:33:37;;;;;;;9.13;1.57;;;;;;;;;;4890238;28;20189;-76
2021/06/08 00:35:59;;;;;;;7.07;1.27;;;;;;;;;;4885337;28;20189;-78
2021/06/08 00:38:22;;;;;;;16.67;2.50;;;;;;;;;;4875631;28;20201;-77
2021/06/08 00:40:45;;;;;;;9.67;1.60;;;10.60;1.00;;;;;;4885233;28;20193;-76
2021/06/08 00:43:07;;;;;;;10.87;1.87;;;;;;;;;;4885359;28;20231;-77
2021/06/08 00:45:31;;;;;;;14.50;2.23;;;10.40;1.00;;;;;;4887844;28;20200;-75
2021/06/08 00:47:54;;;;;;;8.57;1.43;;;;;;;;;;4887931;28;20193;-75
2021/06/08 00:50:16;;;;;;;14.07;2.10;;;;;;;;;;4885919;28;20192;-76
2021/06/08 00:52:38;;;;;;;5.47;0.90;;;;;;;;;;4883683;28;20243;-76
2021/06/08 00:55:01;;;;;;;7.37;1.23;;;;;;;;;;4885061;28;20185;-75
2021/06/08 00:57:23;;;;;;;17.57;2.50;;;;;;;;;;4882536;28;20585;-75
2021/06/08 00:59:45;;;;;;;8.90;1.40;;;;;;;;;;4890197;28;20226;-75
2021/06/08 01:02:08;;;;;;;14.07;2.17;;;10.20;1.00;;;;;;4884377;28;20235;-74
2021/06/08 01:04:31;;;;;;;20.13;2.90;;;;;;;;;;4887306;28;20269;-76
2021/06/08 01:06:53;;;;;;;10.57;1.70;;;;;;;;;;4887302;28;20185;-74
2021/06/08 01:09:17;;;;;;;9.63;1.60;;;;;;;;;;4883937;28;20195;-75
2021/06/08 01:11:39;;;;;;;7.83;1.47;;;;;;;;;;4884245;28;20271;-75
2021/06/08 01:14:02;;;;;;;7.77;1.30;;;;;;;;;;4875189;28;20186;-76
2021/06/08 01:16:24;;;;;;;17.67;2.57;;;;;;;;;;4887057;28;20182;-75
2021/06/08 01:18:47;;;;;;;9.83;1.63;;;9.90;1.00;;;;;;4887483;28;20193;-75
2021/06/08 01:21:12;;;;;;;11.37;1.90;;;9.90;1.00;;;;;;4886368;28;20602;-75
2021/06/08 01:23:35;;;;;;;17.00;2.50;;;9.80;1.00;;;;;;4884141;28;20757;-75
2021/06/08 01:25:58;;;;;;;6.90;1.30;;;;;;;;;;4884889;28;20676;-76
2021/06/08 01:28:20;;;;;;;12.20;1.97;;;;;;;;;;4884602;28;20230;-76
2021/06/08 01:30:43;;;;;;;7.10;1.30;;;;;;;;;;4884776;28;20262;-75
2021/06/08 01:33:05;;;;;;;8.43;1.40;;;;;;;;;;4884743;28;20262;-76
2021/06/08 01:35:28;;;;;;;25.07;3.67;;;;;;;;;;4876454;28;20251;-73
2021/06/08 01:37:52;;;;;;;8.13;1.40;;;9.50;1.00;;;;;;4883758;28;20691;-74
2021/06/08 01:40:17;;;;;;;10.60;1.77;;;9.50;1.00;;;;;;4876125;28;20659;-75
2021/06/08 01:42:41;;;;;;;7.23;1.27;;;9.50;1.00;;;;;;4890117;28;20197;-76
2021/06/08 01:45:04;;;;;;;5.53;1.03;;;9.50;1.00;;;;;;4885129;28;20773;-75
2021/06/08 01:47:26;;;;;;;8.33;1.50;;;;;;;;;;4876360;28;20712;-74
2021/06/08 01:49:48;;;;;;;6.50;1.10;;;;;;;;;;4888881;28;20710;-74
2021/06/08 01:52:17;;;;;;;10.97;1.73;;;9.60;1.00;;;;;;4885335;28;20242;-74
2021/06/08 01:54:48;;;;;;;8.67;1.47;;;9.60;1.00;;;;;;4884006;28;20185;-75
2021/06/08 01:57:14;;;;;;;11.87;1.93;;;9.50;1.00;;;;;;4884445;28;20181;-75
2021/06/08 01:59:49;;;;;;;13.97;2.17;;;9.50;1.00;;;;;;4886518;28;20238;-75
2021/06/08 02:02:17;;;;;;;11.57;1.83;;;9.50;1.00;;;;;;4874056;28;20195;-74
2021/06/08 02:04:43;;;;;;;6.27;1.20;;;9.50;1.00;;;;;;4883553;28;20251;-75
2021/06/08 02:07:14;;;;;;;13.17;2.00;;;9.50;1.00;;;;;;4874083;28;20248;-74
2021/06/08 02:09:41;;;;;;;16.73;2.60;;;9.40;1.00;;;;;;4886225;28;20176;-74
2021/06/08 02:12:07;;;;;;;9.13;1.57;;;9.40;1.00;;;;;;4885916;28;20184;-75
2021/06/08 02:14:37;;;;;;;12.80;2.00;;;9.40;1.00;;;;;;4868118;28;20201;-74
2021/06/08 02:17:05;;;;;;;4.33;0.87;;;9.40;1.00;;;;;;4874085;28;20227;-74
2021/06/08 02:19:30;;;;;;;13.40;2.13;;;9.30;1.00;;;;;;4870979;28;20185;-74
2021/06/08 02:21:57;;;;;;;8.03;1.43;;;9.30;1.00;;;;;;4881480;28;20181;-75
2021/06/08 02:24:23;;;;;;;14.40;2.33;;;9.30;1.00;;;;;;4884902;28;20215;-77
2021/06/08 02:26:47;;;;;;;10.07;1.67;;;9.30;1.00;;;;;;4886216;28;20305;-77
2021/06/08 02:29:11;;;;;;;9.63;1.53;;;9.20;1.00;;;;;;4875983;28;20196;-78
2021/06/08 02:31:34;;;;;;;8.50;1.53;;;;;;;;;;4880339;28;20709;-78
2021/06/08 02:33:57;;;;;;;7.33;1.40;;;9.20;1.00;;;;;;4886116;28;20643;-78
2021/06/08 02:36:19;;;;;;;8.73;1.60;;;;;;;;;;4883993;28;20226;-78
2021/06/08 02:38:43;;;;;;;8.33;1.50;;;9.10;1.00;;;;;;4882105;28;20201;-78
2021/06/08 02:41:06;;;;;;;9.90;1.77;;;9.10;1.00;;;;;;4873509;28;20237;-78
2021/06/08 02:43:30;;;;;;;14.57;2.30;;;9.10;1.00;;;;;;4899572;28;20621;-77
2021/06/08 02:45:54;;;;;;;7.10;1.37;;;9.10;1.00;;;;;;4887622;28;20201;-78
2021/06/08 02:48:17;;;;;;;9.83;1.67;;;9.10;1.00;;;;;;4874975;28;20240;-77
2021/06/08 02:50:40;;;;;;;4.77;0.93;;;;;;;;;;4889137;28;20189;-78
2021/06/08 02:53:02;;;;;;;6.73;1.30;;;;;;;;;;4889759;28;20216;-76
2021/06/08 02:55:26;;;;;;;15.43;2.57;;;8.90;1.00;;;;;;4886676;28;20184;-78
2021/06/08 02:57:51;;;;;;;7.57;1.43;;;9.00;1.00;;;;;;4887131;28;20185;-77
2021/06/08 03:00:14;;;;;;;11.13;1.90;;;9.10;1.00;;;;;;4888305;28;20216;-76
2021/06/08 03:02:41;;;;;;;12.27;2.20;;;9.00;1.00;;;;;;4890261;28;20180;-77
2021/06/08 03:05:06;;;;;;;7.63;1.40;;;9.00;1.00;;;;;;4877293;28;20648;-76
2021/06/08 03:07:28;;;;;;;14.33;2.37;;;;;;;;;;4879539;28;20231;-78
2021/06/08 03:09:54;;;;;;;10.80;1.90;;;9.00;1.00;;;;;;4887073;28;20186;-78
2021/06/08 03:12:19;;;;;;;12.07;2.13;;;8.90;1.00;;;;;;4894436;28;20188;-76
2021/06/08 03:14:46;;;;;;;6.27;1.30;;;8.90;1.00;;;;;;4885191;28;20528;-78
2021/06/08 03:17:13;;;;;;;7.13;1.27;;;8.90;1.00;;;;;;4888984;28;20189;-78
2021/06/08 03:19:38;;;;;;;11.87;1.97;;;9.00;1.00;;;;;;4879252;28;20239;-78
2021/06/08 03:22:03;;;;;;;3.90;0.97;;;9.00;1.00;;;;;;4881358;28;20243;-78
2021/06/08 03:24:30;;;;;;;14.27;2.37;;;9.00;1.00;;;;;;4878883;28;20201;-78
2021/06/08 03:26:53;;;;;;;9.70;1.80;;;9.10;1.00;;;;;;4886199;28;20551;-78
2021/06/08 03:29:17;;;;;;;8.67;1.60;;;9.20;1.00;;;;;;4888005;28;20190;-78
2021/06/08 03:31:42;;;;;;;5.53;1.13;;;9.20;1.00;;;;;;4890823;28;20223;-77
2021/06/08 03:34:05;;;;;;;7.37;1.47;;;9.30;1.00;;;;;;4889087;28;20654;-77
2021/06/08 03:36:30;;;;;;;14.20;2.33;;;9.30;1.00;;;;;;4881514;28;20198;-78
2021/06/08 03:38:53;;;;;;;6.90;1.27;;;9.40;1.00;;;;;;4874122;28;20194;-78
2021/06/08 03:41:16;;;;;;;12.77;2.20;;;9.40;1.00;;;;;;4877109;28;20284;-78
2021/06/08 03:43:38;;;;;;;6.50;1.23;;;9.50;1.00;;;;;;4888948;28;20278;-75
2021/06/08 03:46:01;;;;;;;5.27;1.07;;;;;;;;;;4886398;28;20211;-77
2021/06/08 03:48:23;;;;;;;14.33;2.40;;;;;;;;;;4890677;28;20263;-77
2021/06/08 03:50:46;;;;;;;7.60;1.37;;;9.70;1.00;;;;;;4887293;28;20196;-78
2021/06/08 03:53:10;;;;;;;8.00;1.50;;;9.80;1.00;;;;;;4886767;28;20247;-76
2021/06/08 03:55:32;;;;;;;12.83;2.27;;;;;;;;;;4888406;28;20181;-77
2021/06/08 03:57:56;;;;;;;9.30;1.73;;;9.90;1.00;;;;;;4885145;28;20243;-76
2021/06/08 04:00:18;;;;;;;8.73;1.57;;;;;;;;;;4895525;28;20197;-76
2021/06/08 04:02:41;;;;;;;6.47;1.23;;;9.80;1.00;;;;;;4884513;28;20212;-76
2021/06/08 04:05:04;;;;;;;9.27;1.67;;;11.50;5.70;;;;;;4885976;28;20190;-76
2021/06/08 04:07:27;;;;;;;12.30;2.00;;;;;;;;;;4870911;28;20248;-76
2021/06/08 04:09:50;;;;;;;5.80;1.20;;;10.40;19.50;;;;;;4885748;28;20193;-76
2021/06/08 04:12:13;;;;;;;13.43;2.23;;;;;;;;;;4889644;28;20650;-76
2021/06/08 04:14:36;;;;;;;13.60;2.43;;;10.70;38.50;;;;;;4881653;28;20302;-74
2021/06/08 04:17:19;;;;;;;8.90;1.73;;;;;;;;;;4882956;28;20198;-75
2021/06/08 04:19:42;;;;;;;7.57;1.43;;;11.00;66.40;;;;;;4885861;28;20212;-75
2021/06/08 04:22:05;;;;;;;9.33;1.73;;;;;;;;;;4876014;28;20198;-75
2021/06/08 04:24:27;;;;;;;16.57;2.70;;;11.30;94.40;;;;;;4884931;28;20643;-75
2021/06/08 04:26:51;;;;;;;7.30;1.33;;;11.50;99.90;;;;;;4889792;28;20213;-76
2021/06/08 04:29:13;;;;;;;11.47;1.93;;;;;;;;;;4864330;28;20236;-75
2021/06/08 04:31:36;;;;;;;15.53;2.53;;;11.70;99.90;;;;;;4890469;28;20647;-75
2021/06/08 04:33:58;;;;;;;6.53;1.20;;;;;;;;;;4886406;28;20189;-76
2021/06/08 04:36:21;;;;;;;14.67;2.43;;;;;;;;;;4886857;28;20197;-76
2021/06/08 04:38:47;;;;;;;7.53;1.33;;;12.20;99.90;;;;;;4888210;28;20219;-76
2021/06/08 04:41:09;;;;;;;6.23;1.10;;;;;;;;;;4887316;28;20218;-78
2021/06/08 04:43:33;;;;;;;13.43;2.23;;;12.40;99.90;;;;;;4879355;28;20242;-78
2021/06/08 04:45:56;;;;;;;9.57;1.67;;;;;;;;;;4882224;28;20213;-78
2021/06/08 04:48:18;;;;;;;8.87;1.53;;;;;;;;;;4891932;28;20193;-76
2021/06/08 04:50:40;;;;;;;12.87;2.13;;;;;;;;;;4888187;28;20185;-78
2021/06/08 04:53:03;;;;;;;6.27;1.10;;;13.00;29.90;;;;;;4887459;28;20204;-77
2021/06/08 04:55:25;;;;;;;13.60;2.13;;;;;;;;;;4889157;28;20749;-78
2021/06/08 04:57:48;;;;;;;8.37;1.50;;;;;;;;;;4896578;28;20238;-77
2021/06/08 05:00:15;;;;;;;11.90;1.90;;;13.40;1.00;;;;;;4896231;28;20733;-75
2021/06/08 05:02:40;;;;;;;7.33;1.27;;;13.50;1.00;;;;;;4886645;28;20212;-78
2021/06/08 05:05:07;;;;;;;6.80;1.20;;;13.60;1.00;;;;;;4895955;28;20707;-76
2021/06/08 05:07:31;;;;;;;13.37;2.13;;;13.70;1.00;;;;;;4896015;28;20188;-79
2021/06/08 05:09:54;;;;;;;6.57;1.20;;;13.90;1.00;;;;;;4896343;28;20193;-78
2021/06/08 05:12:21;;;;;;;7.30;1.30;;;14.00;1.00;;;;;;4895790;28;20684;-78
2021/06/08 05:14:49;;;;;;;11.10;1.93;;;14.10;1.00;;;;;;4896599;28;20243;-77
2021/06/08 05:17:16;;;;;;;7.30;1.30;;;14.30;99.90;;;;;;4896154;28;20180;-79
2021/06/08 05:19:39;;;;;;;4.20;0.90;;;14.50;1.00;;;;;;4896163;28;20653;-78
2021/06/08 05:22:03;;;;;;;9.73;1.67;;;14.60;99.90;;;;;;4894286;28;20234;-78
2021/06/08 05:24:26;;;;;;;11.67;1.93;;;14.80;99.90;;;;;;4876622;28;20242;-80
2021/06/08 05:26:49;;;;;;;6.37;1.17;;;14.90;1.00;;;;;;4875656;28;20185;-78
2021/06/08 05:29:12;;;;;;;3.73;0.73;;;;;;;;;;4876827;28;20216;-78
2021/06/08 05:31:34;;;;;;;16.07;2.60;;;;;;;;;;4876372;28;20215;-78
2021/06/08 05:33:58;;;;;;;8.63;1.50;;;15.20;99.90;;;;;;4876623;28;20198;-78
2021/06/08 05:36:21;;;;;;;8.40;1.40;;;;;;;;;;4876624;28;20221;-76
2021/06/08 05:38:46;;;;;;;6.70;1.13;;;14.90;1.00;;;;;;4876634;28;20177;-78
2021/06/08 05:41:11;;;;;;;7.40;1.30;;;15.60;99.90;;;;;;4876540;28;20547;-78
2021/06/08 05:43:34;;;;;;;12.70;2.17;;;;;;;;;;4876138;28;20278;-78
2021/06/08 05:45:56;;;;;;;12.33;2.00;;;;;;;;;;4876492;28;20549;-77
2021/06/08 05:48:21;;;;;;;5.00;0.87;;;16.00;1.00;;;;;;4875792;28;20603;-75
2021/06/08 05:50:44;;;;;;;5.40;0.90;;;16.10;1.00;;;;;;4876353;28;20639;-76
2021/06/08 05:53:07;;;;;;;3.83;0.83;;;;;;;;;;4876291;28;20210;-80
2021/06/08 05:55:32;;;;;;;11.93;1.93;;;16.50;1.00;;;;;;4875451;28;20185;-79
2021/06/08 05:57:55;;;;;;;5.50;1.03;;;16.70;1.00;;;;;;4876306;28;20185;-78
2021/06/08 06:00:17;;;;;;;6.67;1.20;;;17.20;99.90;;;;;;4876153;28;20189;-77
2021/06/08 06:02:41;;;;;;;7.73;1.30;;;17.00;1.00;;;;;;4874396;28;20716;-77
2021/06/08 06:05:07;;;;;;;7.57;1.30;;;17.60;1.00;;;;;;4876124;28;20650;-76
2021/06/08 06:07:31;;;;;;;13.77;2.17;;;16.80;1.00;;;;;;4876005;28;20651;-79
2021/06/08 06:09:54;;;;;;;7.43;1.23;;;;;;;;;;4875811;28;20658;-78
2021/06/08 06:12:16;;;;;;;9.00;1.47;;;;;;;;;;4876215;28;20597;-77
2021/06/08 06:14:39;;;;;;;4.27;0.80;;;17.80;99.90;;;;;;4876469;28;20404;-75
2021/06/08 06:17:03;;;;;;;7.63;1.23;;;17.90;99.90;;;;;;4876038;28;20622;-75
2021/06/08 06:19:25;;;;;;;14.70;2.30;;;17.90;99.90;;;;;;4875717;28;20189;-77
2021/06/08 06:21:48;;;;;;;7.37;1.13;;;;;;;;;;4875975;28;20182;-75
2021/06/08 06:24:13;;;;;;;7.80;1.30;;;18.80;1.00;;;;;;4876002;28;20268;-76
2021/06/08 06:26:35;;;;;;;12.63;2.00;;;;;;;;;;4876199;28;20206;-75
2021/06/08 06:29:00;;;;;;;3.90;0.70;;;18.30;10.60;;;;;;4875721;28;20178;-75
2021/06/08 06:31:23;;;;;;;15.07;2.33;;;;;;;;;;4875547;28;20266;-74
2021/06/08 06:33:51;;;;;;;13.37;2.00;;;;;;;;;;4875574;28;20239;-75
2021/06/08 06:36:15;;;;;;;10.57;1.73;;;18.80;99.90;;;;;;4875671;28;20213;-74
2021/06/08 06:38:37;;;;;;;14.43;2.23;;;;;;;;;;4875690;28;20233;-74
2021/06/08 06:41:04;;;;;;;5.93;1.00;;;18.50;1.00;;;;;;4875550;28;20610;-74
2021/06/08 06:43:27;;;;;;;12.50;1.93;;;18.60;1.00;;;;;;4875098;28;20862;-75
2021/06/08 06:45:51;;;;;;;5.83;1.00;;;18.70;1.00;;;;;;4875854;28;20243;-74
2021/06/08 06:48:15;;;;;;;6.53;1.10;;;18.90;1.00;;;;;;4875669;28;20182;-76
2021/06/08 06:50:40;;;;;;;21.57;3.30;;;19.10;1.00;;;;;;4868922;28;20191;-75
2021/06/08 06:53:02;;;;;;;10.23;1.67;;;19.20;1.00;;;;;;4872325;28;20255;-76
2021/06/08 06:55:26;;;;;;;13.70;2.03;;;19.30;1.00;;;;;;4875083;28;20749;-74
2021/06/08 06:57:50;;;;;;;9.50;1.57;;;19.50;1.00;;;;;;4874099;28;20221;-74
2021/06/08 07:00:15;;;;;;;9.23;1.57;;;19.70;1.00;;;;;;4874309;28;20846;-77
2021/06/08 07:02:40;;;;;;;12.83;2.00;;;19.50;99.90;;;;;;4873220;28;20190;-79
2021/06/08 07:05:02;;;;;;;14.47;2.20;;;;;;;;;;4875215;28;20192;-78
2021/06/08 07:07:25;;;;;;;37.23;5.30;;;20.20;1.00;;;;;;4872838;28;20582;-78
2021/06/08 07:09:49;;;;;;;13.67;2.03;;;20.40;1.00;;;;;;4874472;28;20657;-76
2021/06/08 07:12:12;;;;;;;9.97;1.60;;;20.80;1.00;;;;;;4873059;28;20716;-75
2021/06/08 07:14:36;;;;;;;17.50;2.53;;;21.30;1.00;;;;;;4874723;28;20242;-78
2021/06/08 07:16:58;;;;;;;10.60;1.60;;;;;;;;;;4874873;28;20226;-73
2021/06/08 07:19:24;;;;;;;17.87;2.50;;;;;;;;;;4874144;28;20229;-76
2021/06/08 07:21:48;;;;;;;13.33;1.90;;;22.40;99.90;;;;;;4873805;28;20647;-74
2021/06/08 07:24:11;;;;;;;14.47;2.13;;;22.70;99.90;;;;;;4874502;28;20535;-74
2021/06/08 07:26:34;;;;;;;15.70;2.37;;;;;;;;;;4874819;28;20189;-75
2021/06/08 07:28:58;;;;;;;15.60;2.37;;;;;;;;;;4873874;28;20731;-74
2021/06/08 07:31:32;;;;;;;16.23;2.40;;;23.30;99.90;;;;;;4874570;28;20219;-74
2021/06/08 07:34:03;;;;;;;8.40;1.33;;;23.40;99.90;;;;;;4874826;28;20182;-74
2021/06/08 07:36:31;;;;;;;21.90;3.13;;;23.60;99.90;;;;;;4876790;28;20247;-74
2021/06/08 07:38:59;;;;;;;11.27;1.70;;;24.10;99.90;;;;;;4877525;28;20720;-75
2021/06/08 07:41:29;;;;;;;16.40;2.37;;;25.00;99.90;;;;;;4878145;28;20190;-75
2021/06/08 07:43:54;;;;;;;10.93;1.73;;;25.90;99.90;;;;;;4859780;28;20292;-75
2021/06/08 07:46:19;;;;;;;13.03;2.00;;;26.60;99.90;;;;;;4878316;28;20182;-77
2021/06/08 07:48:48;;;;;;;8.10;1.20;;;26.60;99.90;;;;;;4877734;28;20195;-74
2021/06/08 07:51:11;;;;;;;11.57;1.77;;;26.40;99.90;;;;;;4878597;28;20236;-76
2021/06/08 07:53:33;;;;;;;25.43;3.70;;;;;;;;;;4876111;28;20273;-76
2021/06/08 07:55:58;;;;;;;8.30;1.30;;;25.60;1.00;;;;;;4878094;28;20196;-74
2021/06/08 07:58:23;;;;;;;11.90;1.70;;;;;;;;;;4877515;28;20181;-74
2021/06/08 08:00:45;;;;;;;28.47;4.07;;;;;;;;;;4876359;28;20244;-74
2021/06/08 08:03:27;;;;;;;10.40;1.57;;;24.90;99.90;;;;;;4878196;28;20176;-75
2021/06/08 08:05:51;;;;;;;11.17;1.67;;;25.00;1.00;;;;;;4877008;28;20748;-74
2021/06/08 08:08:18;;;;;;;14.17;2.10;;;24.40;1.00;;;;;;4876969;28;20193;-74
2021/06/08 08:10:40;;;;;;;13.80;2.07;;;;;;;;;;4877968;28;20239;-75
2021/06/08 08:13:04;;;;;;;6.57;1.10;;;24.40;99.90;;;;;;4877953;28;20776;-76
2021/06/08 08:15:26;;;;;;;21.83;3.07;;;;;;;;;;4876791;28;20185;-75
2021/06/08 08:17:49;;;;;;;12.40;1.87;;;24.30;99.90;;;;;;4876917;28;20213;-75
2021/06/08 08:20:12;;;;;;;12.53;1.87;;;24.30;99.90;;;;;;4877516;28;20213;-74
2021/06/08 08:22:36;;;;;;;19.10;2.77;;;24.30;99.90;;;;;;4892358;28;20197;-75
2021/06/08 08:24:58;;;;;;;10.40;1.63;;;24.10;1.00;;;;;;4877512;28;20801;-74
2021/06/08 08:27:20;;;;;;;23.03;3.30;;;;;;;;;;4875980;28;20260;-75
2021/06/08 08:29:45;;;;;;;9.03;1.37;;;;;;;;;;4877509;28;20951;-73
2021/06/08 08:32:08;;;;;;;14.37;2.07;;;24.70;99.90;;;;;;4877099;28;20244;-73
2021/06/08 08:34:30;;;;;;;17.17;2.40;;;;;;;;;;4875318;28;20653;-76
2021/06/08 08:36:52;;;;;;;14.20;2.13;;;;;;;;;;4876181;28;20637;-74
2021/06/08 08:39:17;;;;;;;15.43;2.30;;;24.90;99.90;;;;;;4877058;28;20597;-76
2021/06/08 08:41:40;;;;;;;21.63;3.13;;;25.00;99.90;;;;;;4874201;28;20206;-76
2021/06/08 08:44:03;;;;;;;13.83;2.07;;;;;;;;;;4885702;28;20270;-74
2021/06/08 08:46:27;;;;;;;17.93;2.43;;;;;;;;;;4889680;28;20197;-75
2021/06/08 08:48:53;;;;;;;24.27;3.47;;;25.60;99.90;;;;;;4874361;28;20191;-74
2021/06/08 08:51:16;;;;;;;22.07;3.17;;;25.80;99.90;;;;;;4874200;28;20533;-73
2021/06/08 08:53:39;;;;;;;22.67;3.03;;;;;;;;;;4874907;28;20844;-78
2021/06/08 08:56:02;;;;;;;18.93;2.50;;;26.40;99.90;;;;;;4883386;28;20679;-74
2021/06/08 08:58:29;;;;;;;32.93;4.27;;;26.80;99.90;;;;;;4864617;28;20270;-75
2021/06/08 09:00:57;;;;;;;16.97;2.17;;;27.40;99.90;;;;;;4866220;28;20694;-77
2021/06/08 09:03:20;;;;;;;22.53;7.07;;;;;;;;;;4883342;28;20181;-75
2021/06/08 09:05:42;;;;;;;37.43;5.97;;;;;;;;;;4887829;28;20201;-74
2021/06/08 09:08:06;;;;;;;23.03;4.90;;;29.00;99.90;;;;;;4894105;28;20203;-74
2021/06/08 09:10:28;;;;;;;33.30;16.90;;;;;;;;;;4874666;28;20200;-77
2021/06/08 09:12:52;;;;;;;25.03;4.20;;;29.90;99.90;;;;;;4882968;28;20217;-74
2021/06/08 09:15:15;;;;;;;20.30;2.67;;;;;;;;;;4884456;28;20195;-79
2021/06/08 09:17:39;;;;;;;35.53;4.37;;;;;;;;;;4882768;28;20207;-79
2021/06/08 09:20:04;;;;;;;26.93;3.37;;;31.50;99.90;;;;;;4882778;28;20232;-77
2021/06/08 09:22:48;;;;;;;13.13;1.73;;;33.00;99.90;;;;;;4882356;28;20811;-77
2021/06/08 09:25:11;;;;;;;27.63;3.43;;;;;;;;;;4876028;28;20631;-79
2021/06/08 09:27:33;;;;;;;44.58;5.43;;;;;;;;;;4885227;28;20741;-79
2021/06/08 09:29:56;;;;;;;18.83;2.47;;;37.80;99.90;;;;;;4882577;28;20188;-78
2021/06/08 09:32:21;;;;;;;26.80;3.45;;;39.60;99.90;;;;;;4883045;28;20192;-80
2021/06/08 09:34:45;;;;;;;27.00;3.60;;;41.40;99.90;;;;;;4883293;28;20263;-78
2021/06/08 09:37:07;;;;;;;20.63;2.70;;;;;;;;;;4883326;28;20189;-79
2021/06/08 09:39:29;;;;;;;19.88;2.72;;;;;;;;;;4884471;28;20188;-79
2021/06/08 09:41:52;;;;;;;54.53;48.63;;;;;;;;;;4880154;28;20597;-78
2021/06/08 09:44:16;;;;;;;44.97;23.15;;;44.20;99.90;;;;;;4890445;28;20212;-79
2021/06/08 09:46:49;;;;;;;36.88;16.67;;;43.80;99.90;;;;;;4880603;28;20616;-76
2021/06/08 09:49:14;;;;;;;31.92;17.60;;;44.50;99.90;;;;;;4877778;28;20251;-78
2021/06/08 09:51:48;;;;;;;46.33;25.45;;;45.40;99.90;;;;;;4885321;28;20238;-80
2021/06/08 09:54:30;;;;;;;59.78;41.33;;;46.30;99.90;;;;;;4875347;28;20190;-79
2021/06/08 09:57:12;;;;;;;40.42;36.30;;;47.30;99.90;;;;;;4886534;28;20212;-78
2021/06/08 09:59:41;;;;;;;51.53;38.40;;;47.90;99.90;;;;;;4862870;28;20201;-79
2021/06/08 10:02:19;;;;;;;56.25;51.70;;;48.30;99.90;;;;;;4881223;28;20650;-79
2021/06/08 10:04:41;;;;;;;48.92;42.60;;;;;;;;;;4876294;28;20177;-76
2021/06/08 10:07:06;;;;;;;55.95;51.40;;;46.60;99.90;;;;;;4882840;28;20259;-76
2021/06/08 10:09:29;;;;;;;28.13;25.15;;;;;;;;;;4874927;28;20278;-78
2021/06/08 10:12:04;;;;;;;63.75;59.17;;;42.60;99.90;;;;;;4885311;28;20188;-77
2021/06/08 10:14:27;;;;;;;47.47;37.15;;;;;;;;;;4881630;28;20184;-77
2021/06/08 10:16:59;;;;;;;36.90;11.68;;;39.30;99.90;;;;;;4881126;28;20181;-79
2021/06/08 10:19:27;;;;;;;29.23;15.40;;;38.10;99.90;;;;;;4882956;28;20193;-77
2021/06/08 10:21:50;;;;;;;29.55;4.93;;;37.60;99.90;;;;;;4885111;28;20704;-77
2021/06/08 10:24:14;;;;;;;38.38;5.65;;;37.80;99.90;;;;;;4885585;28;20247;-78
2021/06/08 10:26:38;;;;;;;33.00;4.55;;;38.40;99.90;;;;;;4884795;28;20180;-77
2021/06/08 10:29:04;;;;;;;26.23;3.42;;;39.10;99.90;;;;;;4882084;28;20182;-78
2021/06/08 10:31:26;;;;;;;23.63;3.10;;;;;;;;;;4885214;28;20249;-78
2021/06/08 10:33:48;;;;;;;26.83;3.45;;;;;;;;;;4883953;28;20200;-77
2021/06/08 10:36:12;;;;;;;34.45;4.38;;;38.10;99.90;;;;;;4883079;28;20246;-78
2021/06/08 10:38:34;;;;;;;25.42;10.50;;;;;;;;;;4881821;28;20181;-78
2021/06/08 10:40:58;;;;;;;26.65;8.85;;;37.80;99.90;;;;;;4871997;28;20190;-78
2021/06/08 10:43:22;;;;;;;23.63;5.88;;;39.60;99.90;;;;;;4876372;28;20682;-80
2021/06/08 10:45:45;;;;;;;28.52;9.63;;;41.50;99.90;;;;;;4880185;28;20184;-78
2021/06/08 10:49:04;;;;;;;34.22;17.90;;;43.40;99.90;;;;;;4903456;28;20200;-77
2021/06/08 10:51:36;;;;;;;31.30;23.00;;;45.70;99.90;;;;;;4867935;28;20294;-79
2021/06/08 10:53:58;;;;;;;69.82;64.05;;;46.60;99.90;;;;;;4887298;28;20184;-78
2021/06/08 10:56:34;;;;;;;86.70;79.88;;;47.20;99.90;;;;;;4893796;28;20234;-80
2021/06/08 10:59:08;;;;;;;41.33;37.10;;;46.50;99.90;;;;;;4879866;28;20181;-78
2021/06/08 11:04:48;;;;;;;21.48;7.13;;;42.50;99.90;;;;;;4885418;28;20196;-79
2021/06/08 11:07:11;;;;;;;26.33;10.25;;;40.50;99.90;;;;;;4893651;28;20677;-77
2021/06/08 11:09:39;;;;;;;31.15;26.50;;;38.80;99.90;;;;;;4882320;28;20881;-75
2021/06/08 11:12:04;;;;;;;51.53;47.00;;;37.40;99.90;;;;;;4886239;28;20243;-77
2021/06/08 11:14:57;;;;;;;29.17;20.75;;;36.40;99.90;;;;;;4876696;28;20195;-75
2021/06/08 11:17:39;;;;;;;39.15;5.78;;;35.40;99.90;;;;;;4858468;28;20231;-76
2021/06/08 11:20:03;;;;;;;23.70;10.70;;;34.50;99.90;;;;;;4856984;28;20212;-74
2021/06/08 11:22:55;;;;;;;22.20;3.33;;;33.80;99.90;;;;;;4896734;28;20184;-76
2021/06/08 11:25:32;;;;;;;23.15;3.20;;;34.50;99.90;;;;;;4875874;28;20189;-76
2021/06/08 11:28:01;;;;;;;14.30;2.55;;;36.60;99.90;;;;;;4877090;28;20278;-77
2021/06/08 11:30:24;;;;;;;24.67;4.22;;;39.40;99.90;;;;;;4879131;28;20189;-77
2021/06/08 11:32:48;;;;;;;36.50;13.35;;;42.20;99.90;;;;;;4878696;28;20664;-78
2021/06/08 11:35:15;;;;;;;130.68;122.25;;;43.70;99.90;;;;;;4885077;28;20203;-77
2021/06/08 11:37:51;;;;;;;132.52;122.72;;;45.20;99.90;;;;;;4882378;28;20587;-78
2021/06/08 11:40:49;;;;;;;154.10;143.57;;;46.30;99.90;;;;;;4887505;28;20192;-77
2021/06/08 11:43:45;;;;;;;213.15;199.95;;;47.70;99.90;;;;;;4808309;28;20225;-78
2021/06/08 11:46:11;;;;;;;198.50;186.52;;;49.00;99.90;;;;;;4790175;28;20232;-79
2021/06/08 11:48:34;;;;;;;205.65;193.80;;;;;;;;;;4847509;28;20263;-79
2021/06/08 11:50:56;;;;;;;193.07;181.98;;;;;;;;;;4887700;28;20237;-77
2021/06/08 11:53:19;;;;;;;213.65;201.77;;;;;;;;;;4884345;28;20684;-78
2021/06/08 11:55:41;;;;;;;236.23;223.55;;;51.30;99.90;;;;;;4881249;28;20180;-78
2021/06/08 11:58:05;;;;;;;318.58;301.55;;;51.70;99.90;;;;;;4886434;28;20184;-77
2021/06/08 12:00:44;;;;;;;427.65;396.48;;;52.40;99.90;;;;;;4875301;28;20189;-79
2021/06/08 12:03:24;;;;;;;382.17;359.50;;;52.80;99.90;;;;;;4872733;28;20187;-78
2021/06/08 12:05:47;;;;;;;235.65;221.70;;;;;;;;;;4883026;28;20177;-77
2021/06/08 12:08:11;;;;;;;137.43;128.45;;;;;;;;;;4885056;28;20208;-79
2021/06/08 12:10:35;;;;;;;84.93;79.32;;;47.30;99.90;;;;;;4888099;28;20188;-78
2021/06/08 12:12:58;;;;;;;59.40;54.03;;;45.50;99.90;;;;;;4889490;28;20192;-77
2021/06/08 12:15:24;;;;;;;43.22;39.30;;;43.90;99.90;;;;;;4870615;28;20196;-76
2021/06/08 12:17:59;;;;;;;40.13;25.08;;;42.40;99.90;;;;;;4889415;28;20188;-76
2021/06/08 12:20:22;;;;;;;25.92;14.30;;;41.30;99.90;;;;;;4885497;28;20230;-76
2021/06/08 12:22:45;;;;;;;27.83;6.43;;;;;;;;;;4889269;28;20189;-78
2021/06/08 12:25:08;;;;;;;36.17;5.57;;;39.00;99.90;;;;;;4884937;28;20181;-76
2021/06/08 12:27:39;;;;;;;45.08;6.10;;;38.00;99.90;;;;;;4890158;28;20255;-75
2021/06/08 12:30:03;;;;;;;14.20;2.25;;;;;;;;;;4879153;28;20595;-76
2021/06/08 12:32:27;;;;;;;13.27;1.88;;;36.90;99.90;;;;;;4877030;28;20279;-77
2021/06/08 12:34:49;;;;;;;45.60;6.15;;;;;;;;;;4877616;28;20657;-76
2021/06/08 12:37:12;;;;;;;18.85;2.55;;;;;;;;;;4884882;28;20593;-77
2021/06/08 12:39:35;;;;;;;21.45;2.85;;;;;;;;;;4895908;28;20193;-76
2021/06/08 12:42:11;;;;;;;14.52;1.88;;;35.20;99.90;;;;;;4885077;28;20633;-75
2021/06/08 12:44:35;;;;;;;15.68;2.08;;;;;;;;;;4876838;28;20282;-75
2021/06/08 12:47:01;;;;;;;15.13;1.95;;;;;;;;;;4884532;28;20189;-76
2021/06/08 12:49:24;;;;;;;19.88;2.63;;;33.30;99.90;;;;;;4886198;28;20261;-75
2021/06/08 12:51:52;;;;;;;23.92;3.10;;;32.70;99.90;;;;;;4884404;28;20212;-76
2021/06/08 12:54:28;;;;;;;30.33;3.85;;;32.30;99.90;;;;;;4887241;28;20235;-75
2021/06/08 12:56:51;;;;;;;21.17;2.78;;;;;;;;;;4880402;28;20647;-75
2021/06/08 12:59:13;;;;;;;14.20;1.85;;;;;;;;;;4885161;28;20181;-76
2021/06/08 13:01:35;;;;;;;18.52;2.38;;;;;;;;;;4882768;28;20213;-74
2021/06/08 13:03:59;;;;;;;13.30;1.73;;;30.70;99.90;;;;;;4884790;28;20215;-75
2021/06/08 13:06:23;;;;;;;24.88;3.17;;;30.50;99.90;;;;;;4877332;28;20258;-76
2021/06/08 13:08:47;;;;;;;19.42;2.45;;;30.30;99.90;;;;;;4886321;28;20620;-76
2021/06/08 13:11:20;;;;;;;16.50;2.13;;;30.30;99.90;;;;;;4895777;28;20242;-77